Rechercher aéroport 
image banner adimage banner ad
image banner ad

SJPU - Pau D`Arco Airport

Situé à Itaituba, Brazil

ICAO - SJPU, IATA -

Données fournies par Airmate  

Information générale

Coordonnées: S5°1'53" W42°43'7"
Élévation : 459 feet MSL.
Variation magnétique : -21° East
Voir autres Aéroports à Piauí

Données opérationnelles

Accessible au public
Heure actuelle UTC:
Heure actuelle locale:
METAR: SBTE 252200Z 08016G27KT 9999 -TSRA SCT025 FEW030CB BKN100 24/21 Q1008
TAF: TAF SBTE 251500Z 2518/2606 16005KT 9999 SCT020 TX32/2519Z TN24/2606Z BECMG 2521/2523 31005KT BECMG 2600/2602 01005KT CAVOK RMK PGY
Voir NOTAMs / SUP AIP / TFR affectant cet aéroport [VIEW]
Fréquences de communication: [VIEW]

Pistes:

Identifiant RWYQFULongueur (ft)Largeur (ft)SurfaceLDA (ft)
0182049ASPH
1982049ASPH

Coordonnées de l'aéroport

Adresse: Itaituba Brazil

Autres services d'aviation

Clubs d'aviation (sans but lucratif)

Clube De Ultraleve Do Piauí

Clube De Ultraleve Do Piauí

Vue satellite de SJPU